EVRA/RIX METAR and TAF weather

Enter ICAO airport designator
Station Type Date Time Source
EVRA METAR 2019/04/25 02:20 UTC NOAA

EVRA 250220Z 14004KT CAVOK 14/M01 Q1021 NOSIG


Station Type Date Time Source
EVRA Decoded METAR 2019/04/25 02:20 UTC NOAA

Riga International Airport, Latvia (EVRA) 56-55N 023-58E
Apr 24, 2019 - 10:20 PM EDT / 2019.04.25 0220 UTC
Wind: from the SE (140 degrees) at 5 MPH (4 KT):0
Visibility: greater than 7 mile(s):0
Temperature: 57 F (14 C)
Dew Point: 30 F (-1 C)
Relative Humidity: 35%
Pressure (altimeter): 30.15 in. Hg (1021 hPa)
ob: EVRA 250220Z 14004KT CAVOK 14/M01 Q1021 NOSIG
cycle: 2

Station Type Date Time Source
EVRA TAF 2019/04/25 03:10 UTC NOAA

TAF EVRA 250208Z 2503/2603 12007KT CAVOK
TEMPO 2509/2515 14015G28KT

Example: see airport list